PWSweather.com
Personal Weather Stations
Station Observations

OlomoucCZ

Lat: 49.5936202181, Lon: 17.2276005149

Elevation: 752

Station Type: Davis Vantage Pro 2 Activ

http://infopocasi-olomouc.cz

High Low Average
Temperature 36.0°F2.2°C 22.8°F-5.1°C 30.9°F-0.6°C
Dew Point 31.9°F-0.1°C 21.1°F-6.1°C 27.9°F-2.3°C
Winds 9.2 mph 14.8 kmh 1.2 mph 1.9 kmh 4.0 mph S6.4 kmh S
Wind Gusts 12.7 mph20.4 kmh 1.2 mph1.9 kmh 6.0 mph9.7 kmh
Humidity 98% 75% 89%
Pressure 29.72 in1006.4 mb 29.48 in998.3 mb -
Precipitation 0.00 in0.0 mm - -
Hour Temp Dew Point Humidity Winds Wind Gusts Pressure Precip Precip Rate Daily Precip Total
12:00 AM 27.5°F-2.5°C 27.0°F-2.8°C 98% 6.9 mph ESE11.1 kmh ESE 9.2 mph14.8 kmh 29.48 in998.3 mb - 0.00 in0.0 mm 0.00 in0.0 mm
12:30 AM 28.2°F-2.1°C 27.7°F-2.4°C 98% 5.8 mph ESE9.3 kmh ESE 8.1 mph13.0 kmh 29.49 in998.6 mb - 0.00 in0.0 mm 0.00 in0.0 mm
01:00 AM 28.5°F-1.9°C 28.0°F-2.2°C 98% 3.5 mph E5.6 kmh E 5.8 mph9.3 kmh 29.49 in998.6 mb - 0.00 in0.0 mm 0.00 in0.0 mm
01:30 AM 28.8°F-1.8°C 28.3°F-2.1°C 98% 3.5 mph E5.6 kmh E 3.5 mph5.6 kmh 29.49 in998.6 mb - 0.00 in0.0 mm 0.00 in0.0 mm
02:00 AM 28.8°F-1.8°C 28.3°F-2.1°C 98% 3.5 mph E5.6 kmh E 3.5 mph5.6 kmh 29.49 in998.6 mb - 0.00 in0.0 mm 0.00 in0.0 mm
02:30 AM 29.5°F-1.4°C 28.7°F-1.8°C 97% 2.3 mph E3.7 kmh E 3.5 mph5.6 kmh 29.50 in999.0 mb - 0.00 in0.0 mm 0.00 in0.0 mm
03:00 AM 30.1°F-1.1°C 29.1°F-1.6°C 96% 4.6 mph E7.4 kmh E 5.8 mph9.3 kmh 29.51 in999.3 mb - 0.00 in0.0 mm 0.00 in0.0 mm
03:30 AM 30.3°F-0.9°C 28.8°F-1.8°C 94% 5.8 mph ESE9.3 kmh ESE 8.1 mph13.0 kmh 29.51 in999.3 mb - 0.00 in0.0 mm 0.00 in0.0 mm
04:00 AM 30.4°F-0.9°C 28.6°F-1.9°C 93% 6.9 mph E11.1 kmh E 8.1 mph13.0 kmh 29.52 in999.7 mb - 0.00 in0.0 mm 0.00 in0.0 mm
04:30 AM 30.5°F-0.8°C 28.5°F-1.9°C 92% 3.5 mph E5.6 kmh E 5.8 mph9.3 kmh 29.53 in1000.0 mb - 0.00 in0.0 mm 0.00 in0.0 mm
05:00 AM 30.3°F-0.9°C 28.3°F-2.1°C 92% 3.5 mph E5.6 kmh E 8.1 mph13.0 kmh 29.55 in1000.7 mb - 0.00 in0.0 mm 0.00 in0.0 mm
05:30 AM 30.6°F-0.8°C 28.8°F-1.8°C 93% 6.9 mph E11.1 kmh E 8.1 mph13.0 kmh 29.55 in1000.7 mb - 0.00 in0.0 mm 0.00 in0.0 mm
06:00 AM 30.9°F-0.6°C 28.8°F-1.8°C 92% 4.6 mph E7.4 kmh E 8.1 mph13.0 kmh 29.56 in1001.0 mb - 0.00 in0.0 mm 0.00 in0.0 mm
06:30 AM 30.8°F-0.7°C 28.8°F-1.8°C 92% 5.8 mph ESE9.3 kmh ESE 8.1 mph13.0 kmh 29.58 in1001.7 mb - 0.00 in0.0 mm 0.00 in0.0 mm
07:00 AM 31.1°F-0.5°C 29.0°F-1.7°C 92% 8.1 mph SE13.0 kmh SE 10.4 mph16.7 kmh 29.59 in1002.0 mb - 0.00 in0.0 mm 0.00 in0.0 mm
07:30 AM 30.6°F-0.8°C 28.6°F-1.9°C 92% 2.3 mph SE3.7 kmh SE 3.5 mph5.6 kmh 29.61 in1002.7 mb - 0.00 in0.0 mm 0.00 in0.0 mm
08:00 AM 29.7°F-1.3°C 27.9°F-2.3°C 93% 1.2 mph WSW1.9 kmh WSW 1.2 mph1.9 kmh 29.62 in1003.0 mb - 0.00 in0.0 mm 0.00 in0.0 mm
08:30 AM 30.0°F-1.1°C 28.5°F-1.9°C 94% 2.3 mph SE3.7 kmh SE 3.5 mph5.6 kmh 29.64 in1003.7 mb - 0.00 in0.0 mm 0.00 in0.0 mm
09:00 AM 31.6°F-0.2°C 29.8°F-1.2°C 93% 1.2 mph SE1.9 kmh SE 2.3 mph3.7 kmh 29.64 in1003.7 mb - 0.00 in0.0 mm 0.00 in0.0 mm
09:30 AM 32.0°F0.0°C 29.9°F-1.2°C 92% 2.3 mph E3.7 kmh E 3.5 mph5.6 kmh 29.66 in1004.4 mb - 0.00 in0.0 mm 0.00 in0.0 mm
10:00 AM 32.7°F0.4°C 30.3°F-0.9°C 91% 4.6 mph ESE7.4 kmh ESE 6.9 mph11.1 kmh 29.67 in1004.7 mb - 0.00 in0.0 mm 0.00 in0.0 mm
10:30 AM 34.0°F1.1°C 31.1°F-0.5°C 89% 1.2 mph ESE1.9 kmh ESE 2.3 mph3.7 kmh 29.69 in1005.4 mb - 0.00 in0.0 mm 0.00 in0.0 mm
11:00 AM 35.1°F1.7°C 31.9°F-0.1°C 88% 1.2 mph ESE1.9 kmh ESE 2.3 mph3.7 kmh 29.69 in1005.4 mb - 0.00 in0.0 mm 0.00 in0.0 mm
11:30 AM 36.0°F2.2°C 31.9°F-0.1°C 85% 3.5 mph WNW5.6 kmh WNW 5.8 mph9.3 kmh 29.68 in1005.1 mb - 0.00 in0.0 mm 0.00 in0.0 mm
12:00 PM 35.6°F2.0°C 31.0°F-0.6°C 83% 9.2 mph WNW14.8 kmh WNW 12.7 mph20.4 kmh 29.69 in1005.4 mb - 0.00 in0.0 mm 0.00 in0.0 mm
12:30 PM 34.1°F1.2°C 29.5°F-1.4°C 83% 8.1 mph W13.0 kmh W 11.5 mph18.5 kmh 29.69 in1005.4 mb - 0.00 in0.0 mm 0.00 in0.0 mm
01:00 PM 33.2°F0.7°C 28.3°F-2.1°C 82% 8.1 mph W13.0 kmh W 10.4 mph16.7 kmh 29.70 in1005.8 mb - 0.00 in0.0 mm 0.00 in0.0 mm
01:30 PM 36.0°F2.2°C 29.8°F-1.2°C 78% 4.6 mph WSW7.4 kmh WSW 9.2 mph14.8 kmh 29.70 in1005.8 mb - 0.00 in0.0 mm 0.00 in0.0 mm
02:00 PM 34.8°F1.6°C 29.0°F-1.7°C 79% 5.8 mph WSW9.3 kmh WSW 11.5 mph18.5 kmh 29.71 in1006.1 mb - 0.00 in0.0 mm 0.00 in0.0 mm
02:30 PM 35.0°F1.7°C 27.9°F-2.3°C 75% 9.2 mph WSW14.8 kmh WSW 12.7 mph20.4 kmh 29.70 in1005.8 mb - 0.00 in0.0 mm 0.00 in0.0 mm
03:00 PM 34.7°F1.5°C 28.6°F-1.9°C 78% 3.5 mph WNW5.6 kmh WNW 3.5 mph5.6 kmh 29.70 in1005.8 mb - 0.00 in0.0 mm 0.00 in0.0 mm
03:30 PM 34.5°F1.4°C 28.3°F-2.1°C 78% 2.3 mph WNW3.7 kmh WNW 3.5 mph5.6 kmh 29.71 in1006.1 mb - 0.00 in0.0 mm 0.00 in0.0 mm
04:00 PM 35.0°F1.7°C 28.2°F-2.1°C 76% 5.8 mph W9.3 kmh W 9.2 mph14.8 kmh 29.70 in1005.8 mb - 0.00 in0.0 mm 0.00 in0.0 mm
04:30 PM 34.3°F1.3°C 28.2°F-2.1°C 78% 3.5 mph W5.6 kmh W 3.5 mph5.6 kmh 29.70 in1005.8 mb - 0.00 in0.0 mm 0.00 in0.0 mm
05:00 PM 33.5°F0.8°C 28.3°F-2.1°C 81% 2.3 mph W3.7 kmh W 3.5 mph5.6 kmh 29.71 in1006.1 mb - 0.00 in0.0 mm 0.00 in0.0 mm
05:30 PM 33.0°F0.6°C 28.1°F-2.2°C 82% 2.3 mph WSW3.7 kmh WSW 3.5 mph5.6 kmh 29.72 in1006.4 mb - 0.00 in0.0 mm 0.00 in0.0 mm
06:00 PM 31.9°F-0.1°C 27.6°F-2.4°C 84% 2.3 mph SW3.7 kmh SW 3.5 mph5.6 kmh 29.72 in1006.4 mb - 0.00 in0.0 mm 0.00 in0.0 mm
06:30 PM 31.5°F-0.3°C 26.9°F-2.8°C 83% 1.2 mph SSW1.9 kmh SSW 3.5 mph5.6 kmh 29.72 in1006.4 mb - 0.00 in0.0 mm 0.00 in0.0 mm
07:00 PM 31.1°F-0.5°C 26.8°F-2.9°C 84% 1.2 mph SW1.9 kmh SW 1.2 mph1.9 kmh 29.72 in1006.4 mb - 0.00 in0.0 mm 0.00 in0.0 mm
07:30 PM 30.3°F-0.9°C 26.6°F-3.0°C 86% 2.3 mph WSW3.7 kmh WSW 3.5 mph5.6 kmh 29.71 in1006.1 mb - 0.00 in0.0 mm 0.00 in0.0 mm
08:00 PM 29.1°F-1.6°C 25.7°F-3.5°C 87% 1.2 mph WSW1.9 kmh WSW 2.3 mph3.7 kmh 29.72 in1006.4 mb - 0.00 in0.0 mm 0.00 in0.0 mm
08:30 PM 28.4°F-2.0°C 25.6°F-3.6°C 89% 1.2 mph WSW1.9 kmh WSW 1.2 mph1.9 kmh 29.71 in1006.1 mb - 0.00 in0.0 mm 0.00 in0.0 mm
09:00 PM 27.2°F-2.7°C 24.4°F-4.2°C 89% 2.3 mph SW3.7 kmh SW 3.5 mph5.6 kmh 29.71 in1006.1 mb - 0.00 in0.0 mm 0.00 in0.0 mm
09:30 PM 26.9°F-2.8°C 24.1°F-4.4°C 89% 3.5 mph SW5.6 kmh SW 4.6 mph7.4 kmh 29.71 in1006.1 mb - 0.00 in0.0 mm 0.00 in0.0 mm
10:00 PM 26.0°F-3.3°C 23.5°F-4.7°C 90% 2.3 mph NW3.7 kmh NW 3.5 mph5.6 kmh 29.71 in1006.1 mb - 0.00 in0.0 mm 0.00 in0.0 mm
10:30 PM 24.0°F-4.4°C 22.0°F-5.6°C 92% 2.3 mph NW3.7 kmh NW 3.5 mph5.6 kmh 29.70 in1005.8 mb - 0.00 in0.0 mm 0.00 in0.0 mm
11:00 PM 23.1°F-4.9°C 21.4°F-5.9°C 93% 3.5 mph W5.6 kmh W 3.5 mph5.6 kmh 29.70 in1005.8 mb - 0.00 in0.0 mm 0.00 in0.0 mm
11:30 PM 22.8°F-5.1°C 21.1°F-6.1°C 93% 2.3 mph NW3.7 kmh NW 3.5 mph5.6 kmh 29.70 in1005.8 mb - 0.00 in0.0 mm 0.00 in0.0 mm